createdAt,value
2022-11-05T00:01:40.985Z,9.76
2022-11-05T00:07:01.347Z,9.68
2022-11-05T00:12:23.537Z,9.67
2022-11-05T00:17:27.529Z,9.61
2022-11-05T00:22:55.730Z,9.58
2022-11-05T00:28:02.395Z,9.54
2022-11-05T00:33:06.399Z,9.49
2022-11-05T00:38:08.996Z,9.56
2022-11-05T00:43:29.251Z,9.56
2022-11-05T00:48:51.020Z,9.53
2022-11-05T00:53:53.944Z,9.49
2022-11-05T00:58:57.753Z,9.48
2022-11-05T01:04:01.676Z,9.47
2022-11-05T01:09:04.642Z,9.51
2022-11-05T01:14:09.227Z,9.53
2022-11-05T01:19:13.718Z,9.59
2022-11-05T01:24:16.384Z,9.58
2022-11-05T01:29:19.123Z,9.56
2022-11-05T01:34:23.010Z,9.61
2022-11-05T01:39:25.642Z,9.62
2022-11-05T01:44:55.499Z,9.60
2022-11-05T01:50:08.514Z,9.56
2022-11-05T01:55:11.862Z,9.58
2022-11-05T02:00:16.559Z,9.60
2022-11-05T02:05:20.551Z,9.59
2022-11-05T02:10:23.660Z,9.59
2022-11-05T02:15:35.519Z,9.53
2022-11-05T02:20:45.710Z,9.52
2022-11-05T02:26:12.933Z,9.45
2022-11-05T02:31:23.982Z,9.44
2022-11-05T02:36:35.215Z,9.50
2022-11-05T02:41:43.608Z,9.38
2022-11-05T02:46:55.349Z,9.45
2022-11-05T02:51:59.404Z,9.45
2022-11-05T02:57:03.845Z,9.42
2022-11-05T03:02:07.933Z,9.44
2022-11-05T03:07:21.388Z,9.49
2022-11-05T03:12:33.055Z,9.54
2022-11-05T03:17:41.881Z,9.55
2022-11-05T03:22:49.391Z,9.55
2022-11-05T03:27:55.666Z,9.55
2022-11-05T03:33:01.388Z,9.60
2022-11-05T03:38:08.315Z,9.54
2022-11-05T03:43:11.464Z,9.39
2022-11-05T03:48:16.687Z,9.30
2022-11-05T03:53:23.777Z,9.23
2022-11-05T03:58:27.244Z,9.21
2022-11-05T04:03:36.099Z,9.18
2022-11-05T04:08:56.447Z,9.19
2022-11-05T04:13:59.054Z,9.18
2022-11-05T04:19:03.224Z,9.22
2022-11-05T04:24:09.405Z,9.18
2022-11-05T04:29:29.641Z,9.11
2022-11-05T04:34:33.650Z,9.09
2022-11-05T04:39:36.211Z,9.11
2022-11-05T04:44:38.805Z,9.20
2022-11-05T04:49:42.809Z,9.05
2022-11-05T04:54:45.370Z,8.94
2022-11-05T04:59:49.170Z,8.94
2022-11-05T05:04:53.516Z,9.01
2022-11-05T05:09:56.303Z,9.04
2022-11-05T05:14:58.893Z,8.93
2022-11-05T05:20:20.568Z,8.80
2022-11-05T05:25:23.603Z,8.77
2022-11-05T05:30:26.398Z,8.78
2022-11-05T05:35:30.439Z,8.83
2022-11-05T05:40:33.032Z,8.83
2022-11-05T05:45:36.077Z,8.85
2022-11-05T05:50:40.125Z,8.89
2022-11-05T05:55:42.946Z,8.88
2022-11-05T06:00:45.525Z,8.78
2022-11-05T06:05:49.743Z,8.69
2022-11-05T06:10:55.003Z,8.72
2022-11-05T06:16:01.204Z,8.69
2022-11-05T06:21:06.553Z,8.72
2022-11-05T06:26:10.800Z,8.78
2022-11-05T06:31:14.772Z,8.83
2022-11-05T06:36:20.237Z,8.81
2022-11-05T06:41:22.881Z,8.80
2022-11-05T06:46:25.430Z,8.82
2022-11-05T06:51:30.225Z,8.81
2022-11-05T06:56:32.888Z,8.92
2022-11-05T07:01:35.627Z,8.92
2022-11-05T07:06:39.601Z,8.69
2022-11-05T07:11:42.226Z,8.61
2022-11-05T07:16:44.993Z,8.60
2022-11-05T07:21:50.801Z,8.72
2022-11-05T07:26:53.716Z,8.77
2022-11-05T07:31:56.311Z,8.71
2022-11-05T07:37:00.299Z,8.73
2022-11-05T07:42:04.596Z,8.83
2022-11-05T07:47:09.494Z,8.77
2022-11-05T07:52:15.963Z,8.85
2022-11-05T07:57:18.522Z,8.96
2022-11-05T08:02:23.989Z,9.01
2022-11-05T08:07:29.140Z,9.04
2022-11-05T08:12:32.326Z,9.09
2022-11-05T08:17:35.627Z,9.19
2022-11-05T08:22:42.979Z,9.21
2022-11-05T08:27:45.732Z,9.24
2022-11-05T08:32:48.477Z,9.32
2022-11-05T08:37:52.472Z,9.42
2022-11-05T08:42:57.977Z,9.44
2022-11-05T08:48:01.350Z,9.48
2022-11-05T08:53:06.026Z,9.50
2022-11-05T08:58:12.403Z,9.54
2022-11-05T09:03:15.882Z,9.57
2022-11-05T09:08:20.055Z,9.67
2022-11-05T09:13:23.120Z,9.75
2022-11-05T09:18:25.970Z,9.87
2022-11-05T09:23:36.283Z,9.88
2022-11-05T09:28:38.959Z,9.98
2022-11-05T09:33:43.049Z,10.08
2022-11-05T09:38:46.974Z,10.15
2022-11-05T09:43:52.683Z,10.12
2022-11-05T09:49:05.468Z,10.24
2022-11-05T09:54:11.546Z,10.30
2022-11-05T09:59:17.906Z,10.34
2022-11-05T10:04:23.512Z,10.46
2022-11-05T10:09:29.226Z,10.54
2022-11-05T10:14:34.934Z,10.73
2022-11-05T10:19:43.867Z,10.90
2022-11-05T10:24:49.206Z,11.00
2022-11-05T10:29:52.652Z,11.13
2022-11-05T10:34:57.290Z,11.34
2022-11-05T10:40:01.834Z,11.34
2022-11-05T10:45:13.700Z,11.55
2022-11-05T10:50:18.976Z,11.36
2022-11-05T10:55:25.534Z,11.60
2022-11-05T11:00:29.258Z,11.63
2022-11-05T11:05:34.090Z,11.83
2022-11-05T11:10:42.768Z,11.85
2022-11-05T11:15:45.422Z,11.51
2022-11-05T11:20:53.201Z,11.53
2022-11-05T11:26:01.662Z,11.38
2022-11-05T11:31:06.346Z,11.43
2022-11-05T11:36:10.961Z,11.45
2022-11-05T11:41:25.256Z,11.21
2022-11-05T11:46:32.283Z,11.24
2022-11-05T11:51:40.451Z,11.25
2022-11-05T11:56:46.382Z,11.29
2022-11-05T12:02:07.930Z,12.05
2022-11-05T12:07:20.119Z,12.82
2022-11-05T12:12:30.068Z,13.50
2022-11-05T12:17:42.481Z,13.83
2022-11-05T12:23:01.681Z,13.85
2022-11-05T12:28:23.206Z,14.22
2022-11-05T12:33:36.401Z,14.03
2022-11-05T12:38:58.450Z,14.13
2022-11-05T12:44:24.359Z,14.51
2022-11-05T12:49:40.753Z,14.58
2022-11-05T12:54:59.508Z,14.70
2022-11-05T13:00:08.559Z,13.60
2022-11-05T13:05:15.200Z,12.83
2022-11-05T13:10:24.623Z,12.26
2022-11-05T13:15:30.719Z,12.28
2022-11-05T13:20:39.720Z,12.34
2022-11-05T13:25:47.611Z,12.20
2022-11-05T13:30:53.938Z,12.10
2022-11-05T13:36:13.523Z,11.95
2022-11-05T13:41:28.215Z,11.91
2022-11-05T13:47:00.728Z,11.84
2022-11-05T13:52:22.672Z,11.80
2022-11-05T13:57:45.120Z,11.82
2022-11-05T14:02:52.160Z,11.80
2022-11-05T14:07:55.218Z,11.80
2022-11-05T14:12:59.970Z,11.89
2022-11-05T14:18:05.441Z,11.89
2022-11-05T14:23:48.374Z,11.79
2022-11-05T14:29:10.829Z,11.69
2022-11-05T14:34:24.907Z,11.70
2022-11-05T14:39:29.832Z,11.62
2022-11-05T14:44:35.871Z,11.51
2022-11-05T14:49:49.708Z,11.46
2022-11-05T14:54:55.142Z,11.40
2022-11-05T15:00:00.778Z,11.35
2022-11-05T15:05:37.664Z,11.29
2022-11-05T15:10:40.320Z,11.29
2022-11-05T15:15:45.243Z,11.25
2022-11-05T15:20:50.932Z,11.15
2022-11-05T15:26:02.060Z,10.99
2022-11-05T15:31:07.498Z,10.86
2022-11-05T15:36:29.535Z,10.75
2022-11-05T15:41:34.588Z,10.74
2022-11-05T15:46:37.362Z,10.73
2022-11-05T15:51:53.420Z,10.71
2022-11-05T15:56:58.043Z,10.64
2022-11-05T16:02:06.976Z,10.58
2022-11-05T16:07:12.813Z,10.51
2022-11-05T16:12:24.930Z,10.41
2022-11-05T16:17:29.320Z,10.36
2022-11-05T16:22:51.157Z,10.31
2022-11-05T16:27:53.873Z,10.19
2022-11-05T16:33:04.166Z,9.97
2022-11-05T16:38:08.189Z,9.84
2022-11-05T16:43:19.021Z,9.77
2022-11-05T16:48:21.700Z,9.73
2022-11-05T16:53:25.936Z,9.60
2022-11-05T16:58:28.545Z,9.54
2022-11-05T17:03:31.596Z,9.57
2022-11-05T17:08:35.679Z,9.53
2022-11-05T17:13:38.271Z,9.48
2022-11-05T17:18:41.981Z,9.49
2022-11-05T17:23:46.291Z,9.46
2022-11-05T17:28:48.918Z,9.37
2022-11-05T17:33:51.481Z,9.24
2022-11-05T17:38:55.716Z,9.15
2022-11-05T17:43:58.644Z,9.12
2022-11-05T17:49:01.335Z,9.14
2022-11-05T17:54:05.377Z,9.08
2022-11-05T17:59:08.054Z,9.06
2022-11-05T18:04:10.934Z,8.95
2022-11-05T18:09:17.506Z,8.84
2022-11-05T18:14:24.026Z,8.74
2022-11-05T18:19:27.630Z,8.75
2022-11-05T18:24:32.249Z,8.68
2022-11-05T18:29:37.959Z,8.66
2022-11-05T18:34:40.752Z,8.65
2022-11-05T18:39:45.027Z,8.61
2022-11-05T18:44:48.177Z,8.48
2022-11-05T18:49:50.843Z,8.41
2022-11-05T18:54:54.832Z,8.38
2022-11-05T18:59:57.417Z,8.35
2022-11-05T19:05:27.588Z,8.24
2022-11-05T19:10:23.967Z,8.31
2022-11-05T19:15:26.577Z,8.26
2022-11-05T19:20:33.660Z,8.28
2022-11-05T19:25:40.680Z,8.29
2022-11-05T19:30:43.420Z,8.26
2022-11-05T19:35:46.254Z,8.27
2022-11-05T19:40:50.225Z,8.22
2022-11-05T19:45:52.825Z,8.20
2022-11-05T19:51:00.804Z,8.24
2022-11-05T19:56:07.288Z,8.18
2022-11-05T20:01:10.465Z,8.21
2022-11-05T20:06:15.600Z,8.21
2022-11-05T20:11:19.882Z,8.12
2022-11-05T20:16:23.444Z,8.08
2022-11-05T20:21:26.136Z,8.12
2022-11-05T20:26:30.390Z,8.15
2022-11-05T20:31:33.352Z,8.16
2022-11-05T20:36:35.984Z,8.17
2022-11-05T20:41:40.085Z,8.15
2022-11-05T20:46:42.764Z,8.21
2022-11-05T20:51:45.368Z,8.13
2022-11-05T20:56:49.479Z,8.05
2022-11-05T21:01:53.168Z,8.06
2022-11-05T21:06:55.832Z,8.06
2022-11-05T21:12:11.742Z,8.02
2022-11-05T21:17:14.961Z,7.99
2022-11-05T21:22:17.596Z,7.99
2022-11-05T21:27:21.507Z,7.97
2022-11-05T21:32:24.179Z,7.94
2022-11-05T21:37:26.980Z,7.90
2022-11-05T21:42:31.255Z,7.97
2022-11-05T21:47:33.901Z,7.98
2022-11-05T21:52:53.963Z,7.89
2022-11-05T21:58:21.600Z,7.80
2022-11-05T22:03:24.287Z,7.77
2022-11-05T22:08:27.234Z,7.82
2022-11-05T22:13:34.450Z,7.79
2022-11-05T22:18:37.037Z,7.82
2022-11-05T22:23:39.646Z,7.85
2022-11-05T22:28:43.555Z,7.88
2022-11-05T22:33:46.155Z,7.82
2022-11-05T22:38:48.982Z,7.79
2022-11-05T22:43:53.060Z,7.74
2022-11-05T22:48:56.119Z,7.68
2022-11-05T22:53:58.971Z,7.70
2022-11-05T22:59:03.244Z,7.70
2022-11-05T23:04:05.933Z,7.65
2022-11-05T23:09:31.360Z,7.69
2022-11-05T23:14:41.641Z,7.69
2022-11-05T23:20:02.067Z,7.65
2022-11-05T23:25:05.596Z,7.59
2022-11-05T23:30:12.616Z,7.54
2022-11-05T23:35:15.774Z,7.51
2022-11-05T23:40:20.697Z,7.48
2022-11-05T23:45:50.776Z,7.52
2022-11-05T23:50:58.828Z,7.50
2022-11-05T23:56:02.869Z,7.48
